Terminal Aerodrome Forecast
Issued by NWS Charleston, WV

Current Version | Previous Version | Graphics & Text | Print | Product List | Glossary On
Versions: 1 2 3 4 5 6 7 8 9 10 11 12 13 14 15 16 17 18 19 20 21
096
FTUS41 KRLX 121517 AAA
TAFHTS
TAF AMD
KHTS 121517Z 1215/1312 27006KT 6SM -SN OVC040
     FM122000 28010G19KT P6SM OVC050
     FM130300 30011G20KT 6SM -SHSN OVC020=

USA.gov is the U.S. government's official web portal to all federal, state and local government web resources and services.